withsix.com alexa rank chart, withsix.com alexa rank daily changes

withsix.com alexa rank chart, withsix.com alexa rank daily changes

withsix.com
Actual rank:
249 297

RANK HISTORY

Date Rank Diff
2016/12/06 249 297 -28 632
2016/12/05 277 929 -50 441
2016/12/04 328 370 +7 867
2016/12/02 320 503 -79
2016/12/01 320 582 +34 493
2016/11/30 286 089 +2 984
2016/11/29 283 105 +2 840
2016/11/28 280 265 -8 852
2016/11/27 289 117 -14 711
2016/11/26 303 828 -1 407
2016/11/25 305 235 +8 010
2016/11/24 297 225 -404
2016/11/23 297 629 -27 120
2016/11/19 324 749 -11 337
2016/11/18 336 086 +14 306
2016/11/17 321 780 -23 742
2016/11/16 345 522 +10 870
2016/11/15 334 652 -5 980
2016/11/14 340 632 -3 943
2016/11/13 344 575 +2 709
2016/11/12 341 866 -1 330
2016/11/11 343 196 +9 509
2016/11/10 333 687 +32 017
2016/11/09 301 670 +8 491
2016/11/08 293 179 +8 547
2016/11/07 284 632 -4 327
2016/11/06 288 959 -3 678
2016/11/05 292 637 +10 246
2016/11/04 282 391 -3 380
2016/11/03 285 771 +5 572
2016/11/02 280 199 -64
2016/11/01 280 263 -11 816
2016/10/31 292 079 -10 319
2016/10/30 302 398 -6 949
2016/10/29 309 347 -9 088
2016/10/28 318 435 +23 733
2016/10/27 294 702 +18 551
2016/10/26 276 151 +5 462
2016/10/25 270 689 +3 194
2016/10/24 267 495 -1 879
2016/10/23 269 374 +14 384
2016/10/22 254 990 +10 663
2016/10/21 244 327 +355
2016/10/20 243 972 +17 550
2016/10/19 226 422 +2 385
2016/10/18 224 037 -816
2016/10/17 224 853 +3 272
2016/10/16 221 581 -1 512
2016/10/15 223 093 -31 495
2016/10/14 254 588 -8 386
2016/10/13 262 974 +2 408
2016/10/12 260 566 -16 712
2016/10/11 277 278 -10 552
2016/10/10 287 830 +5 965
2016/10/09 281 865 -27 190
2016/10/08 309 055 +76 273
2016/10/07 232 782

WIDGET FOR YOUR SITE

DOMAINS WITH THE NEAREST RANK

Domain Rank
salinapost.com 249 292
chandra.ac.th 249 293
crediton.kz 249 294
topfacts24.com 249 295
maga-music.ru 249 296
withsix.com 249 297
golinuxhub.com 249 298
880sy.com 249 299
anidl.org 249 300
benedetails.com 249 301
soyentrepreneur.com 249 302

DOMAINS WITH THE NEAREST RANK BY TLD .com

Domain Rank
lucidmotors.com 249 287
centrejob.com 249 288
hindutemplesguide.com 249 289
salinapost.com 249 292
topfacts24.com 249 295
withsix.com 249 297
golinuxhub.com 249 298
880sy.com 249 299
benedetails.com 249 301
soyentrepreneur.com 249 302
oibourse.com 249 303